Address 0xe9a7b94078cf339818126f068e6d76fec0e44e9c

 
 
Txn Hash Method
Block
From
To
Value [Txn Fee]
0x66ed33706b08ccbcf5d11cd33c90b769576f35d42fbc8ab402311ba2833b278dInvite Batch96932952021-08-02 18:43:3546 days 13 hrs ago0xe9a7b94078cf339818126f068e6d76fec0e44e9cOUT 0xe71f923f8032cede47db1d73611370ba24fdf53b0 BNB0.000609965
0x0d1ac52753e34d038f7d49a9588507c3bacb4399730e11a6258f87de8d04274cInvite Batch96932242021-08-02 18:40:0246 days 13 hrs ago0xe9a7b94078cf339818126f068e6d76fec0e44e9cOUT 0xe71f923f8032cede47db1d73611370ba24fdf53b0 BNB0.000609965
0xac86e06dc101c1ceaca0a6a6914c6061e46cd3fa46fabe184cf4c9e3bfb663e6Invite Batch96931522021-08-02 18:36:2246 days 13 hrs ago0xe9a7b94078cf339818126f068e6d76fec0e44e9cOUT 0xe71f923f8032cede47db1d73611370ba24fdf53b0 BNB0.000609965
0x7b8e3e3a800ecacc1a9da8a909ef928ffa68b15d916fb3ba6ed2d088d25dab6fInvite Batch96929622021-08-02 18:26:4646 days 14 hrs ago0xe9a7b94078cf339818126f068e6d76fec0e44e9cOUT 0xe71f923f8032cede47db1d73611370ba24fdf53b0 BNB0.000609965
0x241687dc0ed47b0f8d51c551f6da17ccd47d64aa5ac83d8b90ac34ac7effc799Invite Batch96927022021-08-02 18:13:4546 days 14 hrs ago0xe9a7b94078cf339818126f068e6d76fec0e44e9cOUT 0xe71f923f8032cede47db1d73611370ba24fdf53b0 BNB0.000609965
0x15c23d6d6dec58d8e4afecf3e6e5126d8f43fe51fc822cee66a11c3e393c9be4Stake96877522021-08-02 13:52:1946 days 18 hrs ago0xe9a7b94078cf339818126f068e6d76fec0e44e9cOUT 0x252fde22c7d20aca62a840ca3b66fb0e206ead340 BNB0.002065585
0x41de0cd02dd94f605b4c27eb12bfeeef31079e07409932ce1ad91d4165c929bfTransfer96877312021-08-02 13:51:0446 days 18 hrs ago0x8136013e5ab68b1498ed147fb2dbca5f772c6b2a IN 0xe9a7b94078cf339818126f068e6d76fec0e44e9c0.008 BNB0.0001071
0x91918161303f8dfed5cec107db3b338228d5840af22b6a468f3a06b579129fcaApprove96843092021-08-02 10:54:0746 days 21 hrs ago0xe9a7b94078cf339818126f068e6d76fec0e44e9cOUT 0x5c3e370abf69bcb47a5e94503c99d8abedfa20670 BNB0.00022051
0x803a08b6889086ea9f8ca5af1a0386e21ae6f5a0e6a3cb2296b274016462dcb0Add Liquidity96815022021-08-02 8:27:5846 days 23 hrs ago0xe9a7b94078cf339818126f068e6d76fec0e44e9cOUT 0xa4ce57f063a610290eeef0564b034278438d06cf0 BNB0.0013693041
0x7ccc0f7db0d5af016f4ef8cae36f40e0f1a215b942537e9f61df787eea8cf2bfAdd Liquidity96811932021-08-02 8:12:3147 days 14 mins ago0xe9a7b94078cf339818126f068e6d76fec0e44e9cOUT 0xa4ce57f063a610290eeef0564b034278438d06cf0 BNB0.0028637439
0x73ebfe8fa61d35a236ce065206d1aea93e096c6dd585099fdd0be97a434cf267Approve96810982021-08-02 8:07:0947 days 19 mins ago0xe9a7b94078cf339818126f068e6d76fec0e44e9cOUT 0x26b2ead96b72d4d63925f30e64a71122c27b27950 BNB0.0002267052
0x90b3737ef222b733c41e5eca0a824b9ef0058bf9b95757c0a160ba571eb4e638Approve96810742021-08-02 8:05:4947 days 21 mins ago0xe9a7b94078cf339818126f068e6d76fec0e44e9cOUT BUSD-T Stablecoin0 BNB0.0002264706
0x6812d07f89f9153d78ef08ba6362a6979b385b29cd28f22433ed43d5882b0f2eClaim96809262021-08-02 7:58:2547 days 28 mins ago0xe9a7b94078cf339818126f068e6d76fec0e44e9cOUT 0xae365a010679cf8d2f00c2767af1dbe1d8d9ee9d0 BNB0.001285002
0x51a0c1a1509ab0e81a77f0673083cb6208f674b0afb0aa5b21802720fb1d936fTransfer94877782021-07-26 7:20:0654 days 1 hr ago0xe9a7b94078cf339818126f068e6d76fec0e44e9cOUT0x4a9203efdecf3e4a87a058699b323e5720bf10b70.009 BNB0.0001071
0x119e6e3393cbaec673b8c52d65383a70d4444dfa50d3c50547902fb2a42134dfTransfer94627702021-07-25 10:12:0954 days 22 hrs ago0xe9a7b94078cf339818126f068e6d76fec0e44e9cOUT 0x26b2ead96b72d4d63925f30e64a71122c27b27950 BNB0.0007391532
0xee5e542519f216d5f1156f5043278b7c318256fee9060160b6bf6c0207a57352Claim94557302021-07-25 4:18:0255 days 4 hrs ago0xe9a7b94078cf339818126f068e6d76fec0e44e9cOUT 0x54f47747f997f769fbe412e590f225dd41959d4f0 BNB0.000957276
0xc1d7e4464f9698582282918260f054678f0ecb0938d70a18c3594789c073036bTransfer94531832021-07-25 2:10:2155 days 6 hrs ago0xe9a7b94078cf339818126f068e6d76fec0e44e9cOUT0x598fdedeb5b4add6612767275c07047fc6a0ed7f0.004 BNB0.0001071
0x49979648bf5e2449ec0aa7f9a62460d9cc8c7030c1b348bc4cf7d3ee9e2fa73dSwap94529972021-07-25 2:01:0355 days 6 hrs ago0xe9a7b94078cf339818126f068e6d76fec0e44e9cOUT 0xae365a010679cf8d2f00c2767af1dbe1d8d9ee9d0 BNB0.000862854
0x601922821ff58606e09c22bbfa1aeb7aef6b867f653362db9809fd856bc27b96Approve94342562021-07-24 10:15:0755 days 22 hrs ago0xe9a7b94078cf339818126f068e6d76fec0e44e9cOUT BUSD-T Stablecoin0 BNB0.0002254302
0xf27438b492ed54c378e81db24d59dee2065fff3587e863848a94c2ea12fa1075Swap93974782021-07-23 3:25:2757 days 5 hrs ago0xe9a7b94078cf339818126f068e6d76fec0e44e9cOUT 0x54f47747f997f769fbe412e590f225dd41959d4f0 BNB0.001387338
0x431c5253492bc44ea7bedc2a23b8997b82256508c653a38baeaa275d3b45e54aApprove93974682021-07-23 3:24:5757 days 5 hrs ago0xe9a7b94078cf339818126f068e6d76fec0e44e9cOUT BUSD-T Stablecoin0 BNB0.0002254914
0xf194c65a235ccb34a9cfbe7c07ad3030ad89365e0d80cfe795211b183c4a096cSwap Exact ETH F...93187072021-07-20 9:45:1959 days 22 hrs ago0xe9a7b94078cf339818126f068e6d76fec0e44e9cOUT PancakeSwap: Router v20.19 BNB0.0008997522
0x965fb596d600c45e51e75d2af683714a8514efe8ae49f10ae81fc2bea6106641Swap Exact ETH F...93186902021-07-20 9:44:2859 days 22 hrs ago0xe9a7b94078cf339818126f068e6d76fec0e44e9cOUT PancakeSwap: Router v20.1 BNB0.0008997522
0x076ab422979a690e0cfef22e48e6ed4e310d923cda81fe60f9b00d80fa3340d0Swap Exact ETH F...93186742021-07-20 9:43:4059 days 22 hrs ago0xe9a7b94078cf339818126f068e6d76fec0e44e9cOUT PancakeSwap: Router v20.13 BNB0.0008997522
0x3e7131f31b68d81e5acdaaf86e6a7a674b08ab4cbb0ef27c439ea438e5ce2de5Swap Exact ETH F...93186572021-07-20 9:42:4959 days 22 hrs ago0xe9a7b94078cf339818126f068e6d76fec0e44e9cOUT PancakeSwap: Router v20.13 BNB0.0009762522
[ Download CSV Export 
Parent Txn Hash Block From To Value
Loading

Contract Name:
0 BNB

Compiler Version
0

Optimization Enabled:
0 BNB

Other Settings:
-NA-
Block Transaction Gas Used Reward
Age Block Fee Address BC Fee Address Voting Power Jailed Incoming
Block Uncle Number Difficulty Gas Used Reward
Loading
Loading
Make sure to use the "Vote Down" button for any spammy posts, and the "Vote Up" for interesting conversations.